Time;durP1;ratioP1;P1;durP2;ratioP2;P2;SDS_P1;SDS_P2;PMS_P1;PMS_P2;Temp;Humidity;BMP_temperature;BMP_pressure;BME280_temperature;BME280_humidity;BME280_pressure;Samples;Min_cycle;Max_cycle;Signal;HPM_P1;HPM_P2
2023/10/08 00:01:18;;;;;;;11.88;2.20;;;;;;;18.19;88.16;102420.78;4976394;28;96591;-29
2023/10/08 00:03:48;;;;;;;4.70;1.90;;;;;;;18.24;87.45;102426.81;4975573;28;96906;-28
2023/10/08 00:06:15;;;;;;;9.88;2.10;;;;;;;18.24;87.44;102426.81;4975092;28;101099;-28
2023/10/08 00:08:40;;;;;;;9.15;2.40;;;;;;;18.23;87.43;102420.47;4976391;28;99221;-28
2023/10/08 00:11:06;;;;;;;6.57;2.20;;;;;;;18.18;87.68;102414.38;4976679;28;96502;-33
2023/10/08 00:13:39;;;;;;;6.90;2.15;;;;;;;18.20;88.16;102433.50;4975047;28;96817;-28
2023/10/08 00:16:15;;;;;;;7.97;2.40;;;;;;;18.17;87.59;102418.13;4974978;28;101232;-28
2023/10/08 00:18:48;;;;;;;7.53;2.78;;;;;;;18.15;87.39;102422.84;4976910;28;97851;-29
2023/10/08 00:21:26;;;;;;;5.65;2.05;;;;;;;18.15;87.72;102416.47;4975329;28;96632;-28
2023/10/08 00:23:52;;;;;;;6.75;2.20;;;;;;;18.14;87.42;102428.41;4976335;28;96685;-28
2023/10/08 00:26:30;;;;;;;6.63;2.10;;;;;;;18.16;87.76;102427.34;5007654;28;101385;-28
2023/10/08 00:28:57;;;;;;;8.43;2.67;;;;;;;18.11;87.76;102417.66;4974772;28;101315;-28
2023/10/08 00:31:30;;;;;;;10.82;2.28;;;;;;;18.07;87.56;102408.78;4975030;28;96597;-28
2023/10/08 00:33:57;;;;;;;10.77;2.28;;;;;;;18.08;87.38;102406.91;4976394;28;96714;-27
2023/10/08 00:36:23;;;;;;;5.68;2.13;;;;;;;18.09;87.98;102409.56;4974586;28;101036;-28
2023/10/08 00:38:58;;;;;;;8.18;2.55;;;;;;;18.05;87.80;102391.56;4974679;28;100887;-28
2023/10/08 00:41:28;;;;;;;6.72;2.42;;;;;;;18.04;87.31;102396.16;4974928;28;96631;-28
2023/10/08 00:43:56;;;;;;;6.57;2.35;;;;;;;18.07;87.66;102389.59;4974793;28;96869;-27
2023/10/08 00:46:39;;;;;;;8.32;2.25;;;;;;;18.05;87.55;102375.09;4975761;28;98042;-28
2023/10/08 00:49:24;;;;;;;5.03;2.15;;;;;;;18.02;87.73;102378.94;4974491;28;102330;-29
2023/10/08 00:52:26;;;;;;;7.03;2.17;;;;;;;18.03;87.70;102388.03;4975621;28;96713;-29
2023/10/08 00:55:04;;;;;;;5.90;2.45;;;;;;;18.03;87.48;102374.31;4975749;28;98350;-29
2023/10/08 00:57:30;;;;;;;7.90;2.05;;;;;;;18.03;87.56;102374.31;4974388;28;101428;-28
2023/10/08 00:59:58;;;;;;;6.03;2.10;;;;;;;17.97;87.75;102361.00;4975656;28;99437;-28
2023/10/08 01:02:36;;;;;;;5.57;2.33;;;;;;;17.99;87.51;102367.28;4974002;28;96727;-28
2023/10/08 01:05:02;;;;;;;4.60;2.08;;;;;;;18.02;87.17;102375.31;4974543;28;96693;-28
2023/10/08 01:07:27;;;;;;;4.97;2.35;;;;;;;18.03;87.32;102386.16;4974249;28;98096;-28
2023/10/08 01:09:59;;;;;;;7.63;2.17;;;;;;;18.00;87.44;102393.72;4974485;28;100851;-28
2023/10/08 01:12:33;;;;;;;6.78;2.92;;;;;;;18.00;86.81;102391.00;4976029;28;96567;-28
2023/10/08 01:17:51;;;;;;;5.63;2.58;;;;;;;17.98;87.03;102391.09;4975170;28;97124;-28
2023/10/08 01:20:38;;;;;;;7.05;2.55;;;;;;;17.99;86.95;102403.78;4974047;28;99240;-29
2023/10/08 01:23:04;;;;;;;4.78;2.40;;;;;;;18.02;87.09;102400.88;4975900;28;96624;-28
2023/10/08 01:25:30;;;;;;;3.97;1.67;;;;;;;18.02;87.22;102413.72;4975484;28;96834;-28
2023/10/08 01:28:01;;;;;;;7.05;2.13;;;;;;;17.99;86.99;102400.19;4975384;28;98053;-28
2023/10/08 01:30:27;;;;;;;8.83;2.67;;;;;;;17.99;86.93;102412.03;4973840;28;100791;-28
2023/10/08 01:32:53;;;;;;;8.73;2.58;;;;;;;18.00;87.34;102410.19;4974153;28;96583;-28
2023/10/08 01:35:24;;;;;;;9.30;2.33;;;;;;;17.99;86.77;102405.66;4976108;28;96901;-28
2023/10/08 01:37:50;;;;;;;8.00;2.42;;;;;;;17.95;87.27;102396.78;4975325;28;97450;-28
2023/10/08 01:40:18;;;;;;;8.85;2.95;;;;;;;17.96;87.51;102398.53;4973827;28;98861;-28
2023/10/08 01:42:43;;;;;;;6.03;2.45;;;;;;;17.92;87.52;102396.09;5006715;28;96568;-28
2023/10/08 01:45:12;;;;;;;7.47;2.30;;;;;;;17.94;87.50;102402.38;4974406;28;96950;-28
2023/10/08 01:47:38;;;;;;;9.88;2.75;;;;;;;17.91;87.28;102397.97;4973604;28;100875;-28
2023/10/08 01:50:18;;;;;;;8.43;2.65;;;;;;;17.95;87.78;102409.63;4975064;28;98364;-28
2023/10/08 01:52:46;;;;;;;9.10;2.85;;;;;;;17.95;87.41;102420.59;4973890;28;97028;-28
2023/10/08 01:55:17;;;;;;;5.90;2.35;;;;;;;17.85;87.65;102412.06;4975236;28;96785;-28
2023/10/08 01:57:43;;;;;;;6.50;2.58;;;;;;;17.93;87.33;102415.19;4974580;28;99504;-28
2023/10/08 02:00:09;;;;;;;12.43;2.67;;;;;;;17.96;87.63;102436.03;4975335;28;97982;-27
2023/10/08 02:02:34;;;;;;;8.95;2.72;;;;;;;17.92;87.80;102432.63;4973684;28;96738;-28
2023/10/08 02:05:00;;;;;;;7.55;2.25;;;;;;;17.93;87.55;102442.63;4975107;28;96803;-28
2023/10/08 02:07:25;;;;;;;6.75;2.53;;;;;;;17.97;87.51;102440.53;4974604;28;99589;-29
2023/10/08 02:09:50;;;;;;;6.50;2.22;;;;;;;17.93;87.72;102428.03;4974762;28;97316;-28
2023/10/08 02:12:16;;;;;;;8.38;2.67;;;;;;;17.94;87.75;102441.63;4974632;28;96655;-28
2023/10/08 02:14:41;;;;;;;8.38;2.53;;;;;;;17.89;87.76;102440.19;4974233;28;96830;-27
2023/10/08 02:17:09;;;;;;;6.20;2.30;;;;;;;17.93;88.25;102449.97;4974671;28;97958;-28
2023/10/08 02:19:36;;;;;;;6.78;2.05;;;;;;;17.91;88.21;102441.84;4973090;28;101128;-28
2023/10/08 02:22:05;;;;;;;5.78;2.10;;;;;;;17.88;88.38;102439.31;4974883;28;96487;-29
2023/10/08 02:24:30;;;;;;;7.68;2.83;;;;;;;17.88;88.04;102431.09;4973687;28;96649;-28
2023/10/08 02:26:57;;;;;;;4.88;2.33;;;;;;;17.89;88.01;102431.97;4974563;28;97456;-28
2023/10/08 02:29:27;;;;;;;6.32;1.98;;;;;;;17.89;88.04;102434.69;4974671;28;98322;-28
2023/10/08 02:31:55;;;;;;;5.57;1.95;;;;;;;17.92;87.95;102432.63;4972954;28;96895;-28
2023/10/08 02:34:20;;;;;;;10.32;2.55;;;;;;;17.92;88.27;102426.25;4973342;28;96866;-28
2023/10/08 02:36:46;;;;;;;7.47;2.63;;;;;;;17.92;88.33;102426.25;4974225;28;99394;-28
2023/10/08 02:39:25;;;;;;;7.75;2.40;;;;;;;17.86;88.69;102424.81;4972812;28;100893;-28
2023/10/08 02:41:52;;;;;;;7.40;2.55;;;;;;;17.83;88.49;102436.88;4974591;28;96672;-29
2023/10/08 02:44:18;;;;;;;5.72;2.50;;;;;;;17.87;88.70;102436.66;4972444;28;96919;-28
2023/10/08 02:46:47;;;;;;;7.07;2.45;;;;;;;17.86;88.98;102429.44;4974617;28;97900;-28
2023/10/08 02:49:16;;;;;;;6.88;2.42;;;;;;;17.84;89.07;102445.97;4973353;28;99907;-28
2023/10/08 02:51:44;;;;;;;5.90;2.13;;;;;;;17.76;88.85;102442.84;4974546;28;96634;-28
2023/10/08 02:54:17;;;;;;;9.63;2.63;;;;;;;17.79;88.79;102446.25;4973227;28;96898;-28
2023/10/08 02:56:51;;;;;;;5.88;1.98;;;;;;;17.79;89.18;102446.25;4973708;28;99622;-28
2023/10/08 02:59:16;;;;;;;6.32;2.30;;;;;;;17.76;89.37;102440.97;4974216;28;99637;-28
2023/10/08 03:01:41;;;;;;;6.97;2.20;;;;;;;17.76;89.58;102437.38;4974670;28;96545;-28
2023/10/08 03:04:19;;;;;;;7.25;2.47;;;;;;;17.73;89.34;102441.19;4974032;28;96861;-28
2023/10/08 03:06:54;;;;;;;6.78;3.15;;;;;;;17.67;89.63;102427.88;4974362;28;97958;-28
2023/10/08 03:09:32;;;;;;;8.55;2.58;;;;;;;17.69;89.84;102439.63;4973944;28;99260;-28
2023/10/08 03:11:58;;;;;;;6.00;2.03;;;;;;;17.66;89.61;102436.19;4973180;28;96808;-28
2023/10/08 03:14:23;;;;;;;6.10;2.33;;;;;;;17.65;89.95;102443.53;4973355;28;97038;-28
2023/10/08 03:16:53;;;;;;;6.10;2.42;;;;;;;17.65;90.24;102434.44;4974156;28;97459;-28
2023/10/08 03:19:19;;;;;;;7.38;2.22;;;;;;;17.59;89.92;102427.50;5005678;28;100819;-28
2023/10/08 03:21:55;;;;;;;11.07;2.83;;;;;;;17.59;89.82;102432.97;4972433;28;96554;-27
2023/10/08 03:24:34;;;;;;;6.82;2.63;;;;;;;17.60;90.42;102432.00;4974592;28;96682;-28
2023/10/08 03:29:58;;;;;;;5.35;2.15;;;;;;;17.56;90.55;102433.19;4975809;28;98716;-28
2023/10/08 03:32:27;;;;;;;5.68;2.20;;;;;;;17.49;90.71;102438.19;4977251;28;96705;-28
2023/10/08 03:34:54;;;;;;;10.02;2.50;;;;;;;17.51;91.12;102449.91;4977230;28;96852;-28
2023/10/08 03:37:29;;;;;;;8.13;2.65;;;;;;;17.46;90.70;102454.81;4976835;28;99564;-29
2023/10/08 03:40:07;;;;;;;7.72;2.40;;;;;;;17.46;90.83;102464.91;4976044;28;101702;-28
2023/10/08 03:42:40;;;;;;;5.68;2.42;;;;;;;17.44;91.03;102464.13;4977542;28;96505;-28
2023/10/08 03:45:12;;;;;;;5.70;2.50;;;;;;;17.46;91.12;102475.88;5007919;28;96973;-28
2023/10/08 03:47:38;;;;;;;5.18;1.90;;;;;;;17.38;91.28;102462.69;4975019;28;101476;-28
2023/10/08 03:50:09;;;;;;;7.28;2.50;;;;;;;17.37;90.93;102472.72;4975245;28;101037;-28
2023/10/08 03:52:38;;;;;;;7.45;2.53;;;;;;;17.37;91.16;102486.41;4975803;28;96708;-28
2023/10/08 03:55:12;;;;;;;6.93;2.15;;;;;;;17.32;91.09;102474.00;4975639;28;97271;-28
2023/10/08 03:57:41;;;;;;;6.60;2.33;;;;;;;17.30;91.21;102481.44;4976728;28;99367;-28
2023/10/08 04:00:12;;;;;;;3.97;2.25;;;;;;;17.28;91.48;102488.88;4975174;28;101442;-28
2023/10/08 04:02:46;;;;;;;6.28;2.30;;;;;;;17.26;91.92;102489.00;4975379;28;96748;-29
2023/10/08 04:05:19;;;;;;;8.00;2.28;;;;;;;17.22;91.67;102495.63;4975802;28;96819;-28
2023/10/08 04:13:07;;;;;;;4.72;2.38;;;;;;;17.13;91.66;102486.13;4976000;28;96688;-28
2023/10/08 04:15:34;;;;;;;7.80;2.50;;;;;;;17.16;91.49;102506.97;4975529;28;96812;-28
2023/10/08 04:18:02;;;;;;;4.78;2.00;;;;;;;17.13;92.02;102518.13;4976467;28;97524;-28
2023/10/08 04:20:32;;;;;;;5.15;2.17;;;;;;;17.12;92.08;102521.84;4974792;28;101327;-28
2023/10/08 04:23:03;;;;;;;9.65;2.60;;;;;;;17.17;91.57;102527.91;4975352;28;96512;-28
2023/10/08 04:25:30;;;;;;;8.82;3.22;;;;;;;17.18;91.76;102526.91;4974857;28;96908;-28
2023/10/08 04:27:59;;;;;;;5.03;2.63;;;;;;;17.16;92.01;102526.13;4974839;28;100467;-28
2023/10/08 04:30:32;;;;;;;5.63;2.53;;;;;;;17.19;91.69;102536.91;4975024;28;101179;-28
2023/10/08 04:33:07;;;;;;;6.38;2.50;;;;;;;17.17;92.12;102531.53;4975117;28;97189;-28
2023/10/08 04:35:36;;;;;;;6.57;2.15;;;;;;;17.16;92.33;102537.09;4974875;28;96809;-29
2023/10/08 04:38:08;;;;;;;6.18;2.22;;;;;;;17.10;91.95;102521.06;4973475;28;101494;-28
2023/10/08 04:40:41;;;;;;;8.32;3.03;;;;;;;17.12;92.23;102514.50;4976291;28;97843;-28
2023/10/08 04:43:10;;;;;;;10.10;2.90;;;;;;;17.10;92.70;102512.84;4975952;28;96674;-28
2023/10/08 04:45:37;;;;;;;4.97;2.22;;;;;;;17.05;92.70;102509.50;4973988;28;96932;-28
2023/10/08 04:48:09;;;;;;;7.32;2.53;;;;;;;17.03;92.84;102508.72;4974454;28;101050;-29
2023/10/08 04:50:36;;;;;;;7.45;2.35;;;;;;;17.06;92.65;102516.72;4974443;28;101670;-27
2023/10/08 04:53:07;;;;;;;5.15;2.40;;;;;;;17.01;92.83;102521.63;4975952;28;96558;-28
2023/10/08 04:55:34;;;;;;;8.38;2.38;;;;;;;17.04;92.95;102530.53;4976700;28;96725;-28
2023/10/08 04:58:00;;;;;;;5.72;2.38;;;;;;;17.00;92.99;102530.81;4974405;28;100486;-28
2023/10/08 05:03:16;;;;;;;5.88;2.35;;;;;;;16.96;92.92;102541.06;4973278;28;96563;-28
2023/10/08 05:08:57;;;;;;;7.35;2.70;;;;;;;16.94;92.97;102532.94;4973881;28;99531;-29
2023/10/08 05:11:45;;;;;;;5.45;2.10;;;;;;;16.95;93.00;102520.16;4975421;28;99658;-28
2023/10/08 05:14:16;;;;;;;4.70;2.50;;;;;;;16.93;93.54;102516.63;4975746;28;96815;-28
2023/10/08 05:17:00;;;;;;;10.13;3.15;;;;;;;16.89;93.33;102509.56;4975632;28;96624;-28
2023/10/08 05:19:48;;;;;;;8.35;2.45;;;;;;;16.88;93.37;102505.97;4974082;28;101603;-27
2023/10/08 05:25:10;;;;;;;8.07;2.58;;;;;;;16.85;93.70;102514.38;4974480;28;96800;-28
2023/10/08 05:27:56;;;;;;;5.22;2.55;;;;;;;16.85;93.52;102522.59;4975898;28;96518;-28
2023/10/08 05:30:41;;;;;;;5.13;2.38;;;;;;;16.80;93.44;102511.00;4975053;28;97994;-29
2023/10/08 05:39:04;;;;;;;11.65;2.70;;;;;;;16.81;93.85;102526.47;4975401;28;96749;-30
2023/10/08 05:41:27;;;;;;;7.72;2.30;;;;;;;16.81;93.91;102545.63;4973967;28;97984;-28
2023/10/08 05:44:13;;;;;;;9.95;2.25;;;;;;;16.76;93.58;102523.97;4974956;28;96943;-28
2023/10/08 05:46:51;;;;;;;6.35;2.15;;;;;;;16.74;94.37;102522.31;4974660;28;96708;-28
2023/10/08 05:49:36;;;;;;;8.38;2.38;;;;;;;16.74;94.33;102528.66;4974367;28;96879;-28
2023/10/08 06:13:06;;;;;;;9.57;2.95;;;;;;;16.64;94.75;102554.81;4973635;28;97422;-28
2023/10/08 06:16:05;;;;;;;12.80;2.72;;;;;;;16.66;95.00;102554.72;4973662;28;101085;-27
2023/10/08 06:18:33;;;;;;;11.77;3.88;;;;;;;16.66;95.06;102563.84;4975055;28;96611;-28
2023/10/08 06:21:08;;;;;;;7.88;3.35;;;;;;;16.68;94.84;102575.53;5006749;28;96830;-28
2023/10/08 06:23:35;;;;;;;13.43;3.63;;;;;;;16.66;95.24;102571.13;4973993;28;99487;-28
2023/10/08 06:28:36;;;;;;;10.75;3.72;;;;;;;16.70;94.76;102584.53;4974760;28;96670;-28
2023/10/08 06:31:12;;;;;;;8.43;3.00;;;;;;;16.71;95.08;102591.78;4974869;28;96852;-28
2023/10/08 06:33:40;;;;;;;3.72;2.22;;;;;;;16.67;95.59;102597.53;4973256;28;100802;-28
2023/10/08 06:36:13;;;;;;;9.38;2.65;;;;;;;16.69;94.96;102598.34;5006430;28;101090;-27
2023/10/08 06:38:40;;;;;;;5.38;2.75;;;;;;;16.72;95.76;102609.09;4973545;28;96631;-28
2023/10/08 06:43:43;;;;;;;7.40;2.55;;;;;;;16.72;95.07;102601.75;4972011;28;97474;-28
2023/10/08 06:46:12;;;;;;;9.65;2.72;;;;;;;16.72;95.27;102601.75;4972497;28;101015;-29
2023/10/08 06:48:38;;;;;;;5.10;2.83;;;;;;;16.67;94.34;102592.94;4972863;28;96610;-28
2023/10/08 06:51:17;;;;;;;6.22;2.22;;;;;;;16.72;94.48;102600.88;4974564;28;96849;-28
2023/10/08 06:53:44;;;;;;;11.65;2.50;;;;;;;16.66;94.40;102590.28;4974159;28;99752;-28
2023/10/08 06:56:12;;;;;;;5.07;2.15;;;;;;;16.70;94.43;102606.44;4972786;28;100719;-30
2023/10/08 06:58:46;;;;;;;4.75;2.30;;;;;;;16.73;94.54;102616.31;4973188;28;96772;-27
2023/10/08 07:01:13;;;;;;;5.00;1.80;;;;;;;16.64;94.45;102620.50;4977742;28;96635;-28
2023/10/08 07:03:38;;;;;;;4.25;1.90;;;;;;;16.68;94.48;102629.38;4977669;28;98019;-28
2023/10/08 07:06:16;;;;;;;4.35;2.13;;;;;;;16.63;94.57;102617.84;4976301;28;98943;-28
2023/10/08 07:08:43;;;;;;;6.38;1.73;;;;;;;16.67;94.31;102622.16;4976475;28;96669;-28
2023/10/08 07:11:11;;;;;;;3.90;1.73;;;;;;;16.68;94.56;102624.78;4976531;28;96884;-28
2023/10/08 07:13:39;;;;;;;5.05;2.15;;;;;;;16.68;94.14;102627.53;4975603;28;100877;-29
2023/10/08 07:16:07;;;;;;;4.90;2.20;;;;;;;16.64;94.27;102620.50;4977298;28;99195;-28
2023/10/08 07:18:33;;;;;;;5.80;2.08;;;;;;;16.67;94.11;102628.50;4976070;28;96827;-28
2023/10/08 07:21:11;;;;;;;9.15;2.50;;;;;;;16.63;93.67;102623.31;4977476;28;96819;-29
2023/10/08 07:23:39;;;;;;;6.85;2.20;;;;;;;16.66;94.08;102631.34;4977114;28;99279;-28
2023/10/08 07:26:10;;;;;;;10.82;3.03;;;;;;;16.63;94.21;102628.78;4975715;28;101367;-29
2023/10/08 07:28:40;;;;;;;6.95;3.13;;;;;;;16.58;94.18;102636.38;4977525;28;96686;-33
2023/10/08 07:31:16;;;;;;;6.65;2.55;;;;;;;16.52;94.13;102643.97;4977711;28;96787;-28
2023/10/08 07:33:47;;;;;;;7.47;2.65;;;;;;;16.50;94.25;102650.50;4975753;28;101108;-28
2023/10/08 07:36:14;;;;;;;6.35;2.50;;;;;;;16.47;94.50;102651.59;4975765;28;101091;-28
2023/10/08 07:38:43;;;;;;;9.93;2.40;;;;;;;16.43;94.46;102654.56;4975431;28;96620;-30
2023/10/08 07:41:15;;;;;;;8.63;2.80;;;;;;;16.44;94.18;102661.78;4975872;28;96914;-28
2023/10/08 07:43:46;;;;;;;10.32;2.60;;;;;;;16.35;94.12;102658.63;4975246;28;100903;-28
2023/10/08 07:46:15;;;;;;;7.72;2.75;;;;;;;16.34;94.21;102664.19;4976106;28;99163;-28
2023/10/08 07:48:43;;;;;;;5.80;2.08;;;;;;;16.28;94.42;102664.50;4975783;28;96621;-28
2023/10/08 07:51:08;;;;;;;5.85;1.92;;;;;;;16.22;93.78;102670.34;4975776;28;96966;-30
2023/10/08 07:53:41;;;;;;;5.47;1.75;;;;;;;16.22;94.01;102678.56;4976941;28;97671;-28
2023/10/08 07:56:08;;;;;;;4.43;1.92;;;;;;;16.16;93.13;102687.09;4975741;28;101478;-28
2023/10/08 07:58:36;;;;;;;4.90;1.92;;;;;;;16.10;93.28;102696.53;4975643;28;96646;-28
2023/10/08 08:01:09;;;;;;;9.10;2.08;;;;;;;16.09;93.16;102694.78;4975500;28;96883;-28
2023/10/08 08:03:36;;;;;;;7.13;2.10;;;;;;;16.05;93.37;102680.38;4976150;28;99377;-28
2023/10/08 08:06:06;;;;;;;4.20;1.77;;;;;;;16.08;93.38;102682.94;4975019;28;100927;-28
2023/10/08 08:08:33;;;;;;;5.78;1.90;;;;;;;16.10;92.87;102685.59;4975311;28;96582;-28
2023/10/08 08:11:03;;;;;;;4.63;1.75;;;;;;;16.19;92.58;102686.94;4974250;28;96848;-28
2023/10/08 08:13:29;;;;;;;5.20;1.45;;;;;;;16.13;92.19;102694.47;4975221;28;99201;-28
2023/10/08 08:16:09;;;;;;;5.50;1.52;;;;;;;16.16;92.53;102696.19;4976387;28;98865;-28
2023/10/08 08:18:36;;;;;;;1.75;1.15;;;;;;;16.08;92.50;102701.19;4975486;28;96612;-28
2023/10/08 08:21:02;;;;;;;5.35;1.80;;;;;;;16.08;92.47;102699.31;5008961;28;96900;-28
2023/10/08 08:23:29;;;;;;;3.83;1.75;;;;;;;16.15;92.56;102699.88;4976533;28;97931;-28
2023/10/08 08:26:07;;;;;;;5.35;2.05;;;;;;;16.13;92.23;102688.13;4976237;28;97939;-29
2023/10/08 08:28:33;;;;;;;7.13;1.90;;;;;;;16.13;91.95;102691.75;4976410;28;96676;-28
2023/10/08 08:31:04;;;;;;;8.65;1.90;;;;;;;16.18;92.11;102702.44;4976760;28;96716;-29
2023/10/08 08:33:52;;;;;;;9.83;2.30;;;;;;;16.16;92.14;102708.97;4976018;28;99387;-28
2023/10/08 08:36:16;;;;;;;5.78;1.80;;;;;;;16.08;92.42;102713.00;4975968;28;98971;-28
2023/10/08 08:38:41;;;;;;;9.73;1.90;;;;;;;16.08;92.68;102714.84;4974970;28;96601;-28
2023/10/08 08:41:07;;;;;;;10.30;1.75;;;;;;;16.16;92.49;102714.41;4976575;28;96557;-29
2023/10/08 08:43:36;;;;;;;8.98;2.40;;;;;;;16.23;92.23;102738.63;4975527;28;100138;-28
2023/10/08 08:46:05;;;;;;;5.13;1.92;;;;;;;16.29;92.04;102729.19;4974164;28;101178;-28
2023/10/08 08:48:33;;;;;;;7.75;2.08;;;;;;;16.26;92.17;102721.16;4974907;28;96674;-28
2023/10/08 08:51:00;;;;;;;7.03;2.35;;;;;;;16.25;92.39;102712.06;4974858;28;96834;-28
2023/10/08 08:53:26;;;;;;;5.28;2.60;;;;;;;16.28;92.11;102719.22;4973927;28;101554;-29
2023/10/08 08:55:54;;;;;;;5.65;2.08;;;;;;;16.28;91.98;102722.84;4974557;28;101215;-28
2023/10/08 08:58:22;;;;;;;6.15;2.00;;;;;;;16.25;92.20;102728.47;4974772;28;96824;-29
2023/10/08 09:00:47;;;;;;;7.72;2.30;;;;;;;16.24;92.16;102729.44;4974731;28;96810;-28
2023/10/08 09:03:13;;;;;;;8.38;2.28;;;;;;;16.16;92.14;102733.56;4975993;28;97554;-28
2023/10/08 09:05:40;;;;;;;4.55;2.17;;;;;;;16.15;92.32;102729.94;4975600;28;99313;-28
2023/10/08 09:08:07;;;;;;;5.80;2.42;;;;;;;16.20;92.16;102735.16;4974647;28;96661;-28
2023/10/08 09:10:36;;;;;;;4.53;2.00;;;;;;;16.24;92.13;102732.19;4975008;28;96806;-28
2023/10/08 09:13:07;;;;;;;7.80;2.13;;;;;;;16.22;92.22;102725.03;4975311;28;98032;-28
2023/10/08 09:15:33;;;;;;;2.97;1.73;;;;;;;16.30;91.96;102725.47;4975441;28;99180;-28
2023/10/08 09:18:09;;;;;;;7.60;2.28;;;;;;;16.24;92.02;102717.63;4973823;28;96718;-28
2023/10/08 09:20:43;;;;;;;6.63;2.22;;;;;;;16.28;91.67;102713.75;4974545;28;96695;-28
2023/10/08 09:23:17;;;;;;;3.92;1.85;;;;;;;16.36;91.71;102714.22;4973682;28;101283;-28
2023/10/08 09:25:44;;;;;;;8.68;2.17;;;;;;;16.24;91.68;102707.56;4973972;28;101168;-29
2023/10/08 09:28:12;;;;;;;7.25;2.15;;;;;;;16.29;91.85;102715.53;4974178;28;96714;-28
2023/10/08 09:30:39;;;;;;;5.80;2.22;;;;;;;16.24;91.38;102714.91;4974318;28;96903;-27
2023/10/08 09:33:10;;;;;;;7.00;2.28;;;;;;;16.24;91.76;102720.38;4973937;28;100677;-29
2023/10/08 09:35:36;;;;;;;4.93;1.90;;;;;;;16.21;91.20;102715.94;4974107;28;101186;-27
2023/10/08 09:38:03;;;;;;;5.55;2.05;;;;;;;16.27;91.36;102714.72;4973970;28;96771;-28
2023/10/08 09:40:29;;;;;;;8.50;1.95;;;;;;;16.31;90.98;102716.31;4974027;28;96895;-29
2023/10/08 09:42:55;;;;;;;9.20;1.75;;;;;;;16.28;90.83;102716.47;4973279;28;101040;-28
2023/10/08 09:45:21;;;;;;;6.40;1.77;;;;;;;16.33;91.09;102728.06;5005766;28;100655;-28
2023/10/08 09:47:55;;;;;;;9.88;2.42;;;;;;;16.31;90.45;102738.19;4973967;28;96669;-29
2023/10/08 09:50:37;;;;;;;7.90;2.20;;;;;;;16.28;90.55;102730.16;4974028;28;96803;-29
2023/10/08 09:53:16;;;;;;;3.83;1.73;;;;;;;16.21;90.41;102709.56;4973808;28;101016;-28
2023/10/08 09:55:49;;;;;;;3.85;1.83;;;;;;;16.25;90.55;102714.78;4973538;28;101397;-28
2023/10/08 09:58:16;;;;;;;6.82;1.60;;;;;;;16.28;90.33;102719.22;4974001;28;96557;-28
2023/10/08 10:00:44;;;;;;;5.93;2.08;;;;;;;16.33;90.31;102717.13;4974115;28;96633;-28
2023/10/08 10:03:12;;;;;;;13.90;2.15;;;;;;;16.31;89.99;102714.47;4973358;28;101354;-29
2023/10/08 10:05:38;;;;;;;7.70;1.98;;;;;;;16.35;90.16;102717.91;4973428;28;100975;-30
2023/10/08 10:08:09;;;;;;;6.40;2.35;;;;;;;16.38;90.13;102717.75;4973335;28;96607;-28
2023/10/08 10:10:39;;;;;;;5.80;2.15;;;;;;;16.40;89.77;102715.81;4973755;28;96611;-28
2023/10/08 10:13:07;;;;;;;4.03;1.80;;;;;;;16.43;89.46;102722.97;4973396;28;101446;-28
2023/10/08 10:15:36;;;;;;;17.95;7.57;;;;;;;16.33;89.77;102704.31;4973112;28;101195;-27
2023/10/08 10:18:13;;;;;;;14.23;6.10;;;;;;;16.40;89.75;102720.38;4973694;28;96684;-28
2023/10/08 10:20:50;;;;;;;35.65;14.27;;;;;;;16.40;89.85;102718.53;4973696;28;96767;-28
2023/10/08 10:23:37;;;;;;;27.48;10.45;;;;;;;16.41;89.88;102731.25;4973334;28;101335;-28
2023/10/08 10:26:04;;;;;;;20.15;8.90;;;;;;;16.48;89.68;102716.25;5006394;28;101127;-29
2023/10/08 10:28:30;;;;;;;13.23;6.38;;;;;;;16.53;89.64;102726.94;4957273;28;96595;-29
2023/10/08 10:30:56;;;;;;;24.10;9.73;;;;;;;16.43;89.54;102726.56;4973540;28;96843;-28
2023/10/08 10:33:32;;;;;;;29.60;11.05;;;;;;;16.43;89.81;102732.03;5005709;28;101565;-29
2023/10/08 10:36:01;;;;;;;37.15;17.88;;;;;;;16.46;89.72;102720.03;4977577;28;98005;-28
2023/10/08 10:38:26;;;;;;;27.52;12.88;;;;;;;16.52;89.88;102717.84;4977998;28;96708;-28
2023/10/08 10:40:58;;;;;;;23.58;9.00;;;;;;;16.65;89.74;102725.34;4978285;28;96892;-28
2023/10/08 10:43:39;;;;;;;23.08;7.18;;;;;;;16.68;89.06;102741.59;4977552;28;99658;-27
2023/10/08 10:48:57;;;;;;;14.73;4.82;;;;;;;16.68;89.25;102731.50;4978245;28;96705;-28
2023/10/08 10:51:23;;;;;;;7.70;3.72;;;;;;;16.67;89.68;102737.97;4977092;28;96744;-28
2023/10/08 10:54:02;;;;;;;8.68;3.83;;;;;;;16.63;89.67;102730.91;4977599;28;99395;-28
2023/10/08 10:56:30;;;;;;;8.00;2.63;;;;;;;16.68;89.55;102730.63;4976489;28;101038;-28
2023/10/08 10:58:59;;;;;;;10.02;3.45;;;;;;;16.58;89.63;102718.47;4976061;28;96702;-28
2023/10/08 11:01:44;;;;;;;10.75;3.13;;;;;;;16.60;89.96;102732.94;4976303;28;97010;-28
2023/10/08 11:04:15;;;;;;;8.85;3.03;;;;;;;16.66;89.73;102722.53;4977547;28;99512;-28
2023/10/08 11:06:45;;;;;;;10.02;3.22;;;;;;;16.68;89.88;102720.56;4976261;28;100960;-28
2023/10/08 11:09:15;;;;;;;11.60;3.20;;;;;;;16.76;89.55;102721.03;4976549;28;96517;-29
2023/10/08 11:11:43;;;;;;;9.20;3.08;;;;;;;16.74;89.85;102711.16;4976195;28;96792;-28
2023/10/08 11:14:16;;;;;;;13.15;3.40;;;;;;;16.80;89.51;102710.81;4976005;28;101216;-28
2023/10/08 11:16:43;;;;;;;8.18;3.45;;;;;;;16.86;89.44;102715.94;4976360;28;101122;-29
2023/10/08 11:19:09;;;;;;;7.05;3.40;;;;;;;16.86;89.44;102710.47;4976354;28;96638;-28
2023/10/08 11:21:53;;;;;;;13.02;3.65;;;;;;;16.87;88.90;102700.38;4977864;28;96863;-28
2023/10/08 11:24:34;;;;;;;7.88;3.47;;;;;;;16.93;89.06;102705.50;4976749;28;98385;-28
2023/10/08 11:27:15;;;;;;;11.23;3.43;;;;;;;16.93;88.79;102695.44;4975779;28;101208;-28
2023/10/08 11:29:48;;;;;;;9.75;3.10;;;;;;;16.90;88.90;102687.41;4977502;28;96609;-28
2023/10/08 11:32:25;;;;;;;12.23;3.70;;;;;;;16.94;89.15;102683.50;5009276;28;96885;-28
2023/10/08 11:34:54;;;;;;;8.52;3.17;;;;;;;17.05;88.50;102693.84;4977410;28;97996;-28
2023/10/08 11:37:33;;;;;;;8.38;3.38;;;;;;;17.13;88.68;102707.94;4975802;28;99096;-28
2023/10/08 11:39:59;;;;;;;7.55;3.53;;;;;;;17.15;88.13;102696.91;4977630;28;96464;-29
2023/10/08 11:44:59;;;;;;;10.10;3.50;;;;;;;17.27;88.09;102704.38;4975577;28;97271;-28
2023/10/08 11:47:30;;;;;;;9.65;3.08;;;;;;;17.28;87.79;102697.03;4976801;28;99821;-28
2023/10/08 11:50:10;;;;;;;6.95;3.45;;;;;;;17.25;87.60;102694.50;4975574;28;96879;-28
2023/10/08 11:52:41;;;;;;;8.25;3.17;;;;;;;17.30;87.77;102684.13;4961370;28;96745;-28
2023/10/08 11:55:07;;;;;;;6.30;2.83;;;;;;;17.30;87.84;102695.09;4975503;28;101034;-28
2023/10/08 11:57:35;;;;;;;8.82;3.63;;;;;;;17.35;87.51;102699.34;4975277;28;101543;-30
2023/10/08 12:00:18;;;;;;;7.07;3.05;;;;;;;17.39;87.98;102702.75;4975634;28;96718;-28
2023/10/08 12:02:47;;;;;;;9.98;3.03;;;;;;;17.40;87.95;102697.19;4975527;28;96849;-28
2023/10/08 12:05:18;;;;;;;4.88;2.22;;;;;;;17.41;87.73;102693.47;4975125;28;101304;-29
2023/10/08 12:07:47;;;;;;;8.80;2.45;;;;;;;17.48;87.85;102693.09;4975559;28;100769;-28
2023/10/08 12:10:16;;;;;;;7.05;2.30;;;;;;;17.49;87.40;102689.38;4976935;28;96686;-29
2023/10/08 12:12:45;;;;;;;6.18;3.20;;;;;;;17.53;87.60;102674.53;4976752;28;96550;-28
2023/10/08 12:15:12;;;;;;;7.85;2.85;;;;;;;17.58;87.09;102673.25;4974588;28;100841;-28
2023/10/08 12:17:39;;;;;;;9.60;2.72;;;;;;;17.56;87.19;102675.19;4976514;28;97357;-28
2023/10/08 12:20:22;;;;;;;5.80;2.03;;;;;;;17.55;87.31;102662.47;4976578;28;96596;-28
2023/10/08 12:22:49;;;;;;;8.27;2.90;;;;;;;17.58;87.21;102656.81;4976600;28;96678;-28
2023/10/08 12:25:14;;;;;;;7.20;2.60;;;;;;;17.54;86.82;102643.38;5007980;28;100870;-28
2023/10/08 12:27:40;;;;;;;5.70;2.83;;;;;;;17.55;86.97;102642.44;4976411;28;97258;-28
2023/10/08 12:30:10;;;;;;;7.80;2.83;;;;;;;17.56;87.01;102634.09;4976635;28;96570;-28
2023/10/08 12:32:37;;;;;;;6.57;2.50;;;;;;;17.64;86.97;102630.91;4975578;28;96758;-27
2023/10/08 12:35:03;;;;;;;6.85;2.88;;;;;;;17.71;87.00;102637.75;4974573;28;100994;-28